Terminal Aerodrome Forecast
Issued by NWS

Home | Current Version | Previous Version | Text Only | Print | Product List | Glossary On
Versions: 1 2 3 4 5 6 7 8 9 10 11 12 13 14 15
000
FTUS42 KTAE 022321
TAFVLD
TAF
KVLD 022321Z 0300/0324 VRB03KT P6SM SCT100
     FM031200 25004KT P6SM SCT030 BKN100
     FM031800 25006KT P6SM VCTS BKN040CB=

USA.gov is the U.S. government's official web portal to all federal, state and local government web resources and services.